createdAt,value
2023-08-11T00:00:09.640Z,99925.53
2023-08-11T00:00:24.639Z,99925.41
2023-08-11T00:00:37.761Z,99922.78
2023-08-11T00:00:49.821Z,99923.66
2023-08-11T00:01:02.335Z,99926.28
2023-08-11T00:01:14.525Z,99918.41
2023-08-11T00:01:26.574Z,99917.44
2023-08-11T00:01:38.955Z,99921.88
2023-08-11T00:01:50.984Z,99925.25
2023-08-11T00:02:06.546Z,99920.84
2023-08-11T00:02:19.049Z,99918.41
2023-08-11T00:02:31.126Z,99921.03
2023-08-11T00:02:43.279Z,99925.34
2023-08-11T00:02:55.378Z,99922.72
2023-08-11T00:03:07.516Z,99922.72
2023-08-11T00:03:19.614Z,99922.72
2023-08-11T00:03:31.849Z,99922.72
2023-08-11T00:03:44.789Z,99922.91
2023-08-11T00:03:57.164Z,99921.03
2023-08-11T00:04:09.250Z,99921.03
2023-08-11T00:04:21.237Z,99922.72
2023-08-11T00:04:33.259Z,99922.72
2023-08-11T00:04:45.289Z,99924.41
2023-08-11T00:04:58.167Z,99918.28
2023-08-11T00:05:10.148Z,99917.44
2023-08-11T00:05:22.140Z,99921.03
2023-08-11T00:05:41.342Z,99921.03
2023-08-11T00:05:56.402Z,99921.13
2023-08-11T00:06:08.716Z,99925.41
2023-08-11T00:06:20.706Z,99921.03
2023-08-11T00:06:32.946Z,99919.16
2023-08-11T00:06:45.887Z,99921.88
2023-08-11T00:06:57.949Z,99915.78
2023-08-11T00:07:10.928Z,99926.28
2023-08-11T00:07:22.866Z,99925.34
2023-08-11T00:07:35.307Z,99919.31
2023-08-11T00:07:51.487Z,99926.19
2023-08-11T00:08:06.058Z,99924.41
2023-08-11T00:08:18.548Z,99923.47
2023-08-11T00:08:30.543Z,99918.19
2023-08-11T00:08:42.528Z,99920.84
2023-08-11T00:08:54.506Z,99922.72
2023-08-11T00:09:09.894Z,99927.13
2023-08-11T00:09:22.149Z,99921.78
2023-08-11T00:09:34.167Z,99924.41
2023-08-11T00:09:46.118Z,99926.09
2023-08-11T00:09:58.310Z,99926.94
2023-08-11T00:10:10.606Z,99929.47
2023-08-11T00:10:22.762Z,99925.91
2023-08-11T00:10:35.912Z,99929.41
2023-08-11T00:10:47.868Z,99919.72
2023-08-11T00:11:00.475Z,99926.75
2023-08-11T00:11:13.435Z,99928.44
2023-08-11T00:11:25.672Z,99925.16
2023-08-11T00:11:37.888Z,99926.38
2023-08-11T00:11:51.165Z,99927.31
2023-08-11T00:12:03.476Z,99926.47
2023-08-11T00:12:15.569Z,99929.19
2023-08-11T00:12:27.554Z,99925.78
2023-08-11T00:12:40.671Z,99933.97
2023-08-11T00:12:52.669Z,99935.66
2023-08-11T00:13:05.060Z,99928.50
2023-08-11T00:13:17.045Z,99931.91
2023-08-11T00:13:29.079Z,99927.66
2023-08-11T00:13:41.489Z,99930.38
2023-08-11T00:13:53.453Z,99926.81
2023-08-11T00:14:05.476Z,99929.47
2023-08-11T00:14:17.863Z,99923.44
2023-08-11T00:14:29.818Z,99924.28
2023-08-11T00:14:41.831Z,99931.34
2023-08-11T00:14:53.828Z,99933.97
2023-08-11T00:15:07.870Z,99932.25
2023-08-11T00:15:19.904Z,99937.53
2023-08-11T00:15:32.329Z,99932.25
2023-08-11T00:15:44.863Z,99930.59
2023-08-11T00:15:57.190Z,99925.31
2023-08-11T00:16:09.320Z,99928.72
2023-08-11T00:16:21.335Z,99928.78
2023-08-11T00:16:33.299Z,99931.34
2023-08-11T00:16:45.829Z,99936.59
2023-08-11T00:16:59.319Z,99925.13
2023-08-11T00:17:12.004Z,99927.75
2023-08-11T00:17:24.054Z,99923.44
2023-08-11T00:17:36.139Z,99927.00
2023-08-11T00:17:48.857Z,99932.25
2023-08-11T00:18:04.080Z,99930.59
2023-08-11T00:18:17.050Z,99929.63
2023-08-11T00:18:29.019Z,99924.38
2023-08-11T00:18:43.654Z,99919.22
2023-08-11T00:18:55.645Z,99925.31
2023-08-11T00:19:07.678Z,99924.47
2023-08-11T00:19:19.787Z,99933.28
2023-08-11T00:19:31.793Z,99927.19
2023-08-11T00:19:43.851Z,99927.19
2023-08-11T00:19:55.855Z,99930.59
2023-08-11T00:20:09.709Z,99924.38
2023-08-11T00:20:21.706Z,99919.38
2023-08-11T00:20:33.655Z,99926.53
2023-08-11T00:20:46.682Z,99924.72
2023-08-11T00:21:00.205Z,99918.56
2023-08-11T00:21:13.782Z,99925.47
2023-08-11T00:21:25.913Z,99918.56
2023-08-11T00:21:37.899Z,99927.28
2023-08-11T00:21:49.909Z,99925.47
2023-08-11T00:22:01.913Z,99918.34
2023-08-11T00:22:13.872Z,99915.72
2023-08-11T00:22:25.902Z,99918.34
2023-08-11T00:22:39.024Z,99917.44
2023-08-11T00:22:51.017Z,99920.22
2023-08-11T00:23:02.986Z,99918.56
2023-08-11T00:23:15.019Z,99916.66
2023-08-11T00:23:27.191Z,99923.81
2023-08-11T00:23:40.950Z,99924.72
2023-08-11T00:23:52.975Z,99925.69
2023-08-11T00:24:05.936Z,99920.44
2023-08-11T00:24:18.156Z,99921.34
2023-08-11T00:24:30.113Z,99917.03
2023-08-11T00:24:42.060Z,99922.31
2023-08-11T00:24:54.051Z,99919.47
2023-08-11T00:25:06.589Z,99919.59
2023-08-11T00:25:18.682Z,99911.78
2023-08-11T00:25:30.745Z,99915.31
2023-08-11T00:25:42.704Z,99921.47
2023-08-11T00:25:54.916Z,99921.63
2023-08-11T00:26:07.392Z,99919.06
2023-08-11T00:26:19.614Z,99919.94
2023-08-11T00:26:31.772Z,99916.44
2023-08-11T00:26:44.077Z,99921.16
2023-08-11T00:26:56.054Z,99914.84
2023-08-11T00:27:08.180Z,99920.03
2023-08-11T00:27:21.027Z,99921.63
2023-08-11T00:27:33.016Z,99913.66
2023-08-11T00:27:45.009Z,99918.72
2023-08-11T00:27:57.002Z,99913.28
2023-08-11T00:28:08.960Z,99918.25
2023-08-11T00:28:20.992Z,99919.06
2023-08-11T00:28:33.590Z,99916.38
2023-08-11T00:28:45.793Z,99918.16
2023-08-11T00:28:58.299Z,99925.00
2023-08-11T00:29:10.308Z,99915.31
2023-08-11T00:29:22.472Z,99916.19
2023-08-11T00:29:35.050Z,99914.69
2023-08-11T00:29:47.038Z,99917.41
2023-08-11T00:29:59.562Z,99920.13
2023-08-11T00:30:12.108Z,99918.72
2023-08-11T00:30:25.442Z,99921.63
2023-08-11T00:30:37.443Z,99915.63
2023-08-11T00:30:52.593Z,99920.72
2023-08-11T00:31:04.642Z,99920.59
2023-08-11T00:31:16.770Z,99914.50
2023-08-11T00:31:29.317Z,99920.72
2023-08-11T00:31:41.440Z,99923.44
2023-08-11T00:31:54.419Z,99919.75
2023-08-11T00:32:06.600Z,99919.75
2023-08-11T00:32:18.599Z,99919.69
2023-08-11T00:32:30.673Z,99916.22
2023-08-11T00:32:43.305Z,99923.03
2023-08-11T00:32:55.452Z,99922.00
2023-08-11T00:33:07.640Z,99922.81
2023-08-11T00:33:20.044Z,99920.19
2023-08-11T00:33:32.077Z,99922.00
2023-08-11T00:33:47.712Z,99921.91
2023-08-11T00:33:59.715Z,99923.78
2023-08-11T00:34:11.960Z,99922.25
2023-08-11T00:34:23.942Z,99919.63
2023-08-11T00:34:36.538Z,99918.69
2023-08-11T00:34:48.541Z,99921.22
2023-08-11T00:35:00.558Z,99914.19
2023-08-11T00:35:12.628Z,99915.81
2023-08-11T00:35:24.684Z,99920.94
2023-08-11T00:35:36.718Z,99919.06
2023-08-11T00:35:48.703Z,99917.19
2023-08-11T00:36:00.700Z,99911.94
2023-08-11T00:36:12.744Z,99917.03
2023-08-11T00:36:25.207Z,99918.91
2023-08-11T00:36:37.178Z,99923.34
2023-08-11T00:36:49.367Z,99916.28
2023-08-11T00:37:02.269Z,99912.81
2023-08-11T00:37:14.704Z,99917.88
2023-08-11T00:37:27.220Z,99917.78
2023-08-11T00:37:39.202Z,99911.56
2023-08-11T00:37:51.555Z,99912.53
2023-08-11T00:38:03.582Z,99907.34
2023-08-11T00:38:15.566Z,99908.19
2023-08-11T00:38:38.013Z,99909.06
2023-08-11T00:38:50.298Z,99917.03
2023-08-11T00:39:02.332Z,99912.53
2023-08-11T00:39:14.458Z,99913.28
2023-08-11T00:39:26.734Z,99910.66
2023-08-11T00:39:38.932Z,99919.75
2023-08-11T00:39:52.702Z,99912.31
2023-08-11T00:40:05.621Z,99914.19
2023-08-11T00:40:18.080Z,99906.22
2023-08-11T00:40:31.620Z,99915.69
2023-08-11T00:40:43.647Z,99913.19
2023-08-11T00:40:55.604Z,99914.78
2023-08-11T00:41:08.652Z,99917.19
2023-08-11T00:41:20.926Z,99920.59
2023-08-11T00:41:33.752Z,99915.16
2023-08-11T00:41:46.920Z,99912.44
2023-08-11T00:41:58.971Z,99911.50
2023-08-11T00:42:10.921Z,99914.97
2023-08-11T00:42:22.865Z,99919.31
2023-08-11T00:42:34.897Z,99921.72
2023-08-11T00:42:46.942Z,99915.63
2023-08-11T00:42:59.045Z,99917.50
2023-08-11T00:43:11.085Z,99923.59
2023-08-11T00:43:23.085Z,99913.97
2023-08-11T00:43:35.182Z,99922.78
2023-08-11T00:43:47.181Z,99916.47
2023-08-11T00:43:59.132Z,99917.34
2023-08-11T00:44:11.224Z,99918.19
2023-08-11T00:44:23.221Z,99922.50
2023-08-11T00:44:35.180Z,99919.03
2023-08-11T00:44:47.129Z,99921.56
2023-08-11T00:45:00.306Z,99929.53
2023-08-11T00:45:12.339Z,99918.19
2023-08-11T00:45:24.898Z,99920.97
2023-08-11T00:45:37.133Z,99922.78
2023-08-11T00:45:50.470Z,99920.91
2023-08-11T00:46:11.787Z,99917.34
2023-08-11T00:46:25.282Z,99928.72
2023-08-11T00:46:37.540Z,99919.03
2023-08-11T00:46:49.589Z,99922.50
2023-08-11T00:47:01.761Z,99926.81
2023-08-11T00:47:14.095Z,99926.00
2023-08-11T00:47:27.665Z,99922.50
2023-08-11T00:47:43.272Z,99927.75
2023-08-11T00:47:55.716Z,99920.72
2023-08-11T00:48:07.842Z,99926.81
2023-08-11T00:48:20.349Z,99928.63
2023-08-11T00:48:32.384Z,99921.72
2023-08-11T00:48:44.610Z,99928.72
2023-08-11T00:48:56.753Z,99922.69
2023-08-11T00:49:10.504Z,99927.00
2023-08-11T00:49:22.540Z,99932.25
2023-08-11T00:49:35.015Z,99932.25
2023-08-11T00:49:46.983Z,99921.94
2023-08-11T00:49:59.376Z,99924.56
2023-08-11T00:50:13.260Z,99928.88
2023-08-11T00:50:25.667Z,99928.78
2023-08-11T00:50:38.168Z,99923.44
2023-08-11T00:50:50.247Z,99923.34
2023-08-11T00:51:02.856Z,99927.00
2023-08-11T00:51:16.218Z,99927.19
2023-08-11T00:51:29.916Z,99924.84
2023-08-11T00:51:43.024Z,99927.72
2023-08-11T00:51:55.700Z,99929.59
2023-08-11T00:52:07.795Z,99925.09
2023-08-11T00:52:20.140Z,99929.59
2023-08-11T00:52:32.246Z,99923.41
2023-08-11T00:52:46.628Z,99926.97
2023-08-11T00:53:02.123Z,99924.34
2023-08-11T00:53:14.249Z,99932.16
2023-08-11T00:53:26.336Z,99929.44
2023-08-11T00:53:38.614Z,99925.22
2023-08-11T00:53:52.196Z,99921.91
2023-08-11T00:54:07.397Z,99925.66
2023-08-11T00:54:20.628Z,99922.31
2023-08-11T00:54:32.675Z,99923.16
2023-08-11T00:54:47.001Z,99928.41
2023-08-11T00:55:00.280Z,99934.47
2023-08-11T00:55:13.818Z,99926.72
2023-08-11T00:55:25.898Z,99930.16
2023-08-11T00:55:38.917Z,99928.28
2023-08-11T00:55:50.974Z,99929.13
2023-08-11T00:56:04.279Z,99925.56
2023-08-11T00:56:16.628Z,99923.84
2023-08-11T00:56:28.638Z,99925.56
2023-08-11T00:56:45.342Z,99930.84
2023-08-11T00:56:57.975Z,99928.09
2023-08-11T00:57:10.044Z,99929.78
2023-08-11T00:57:22.092Z,99927.16
2023-08-11T00:57:34.665Z,99928.75
2023-08-11T00:57:47.971Z,99932.97
2023-08-11T00:58:00.743Z,99925.84
2023-08-11T00:58:13.072Z,99933.84
2023-08-11T00:58:25.872Z,99930.19
2023-08-11T00:58:38.563Z,99928.59
2023-08-11T00:58:50.887Z,99928.59
2023-08-11T00:59:03.850Z,99929.44
2023-08-11T00:59:16.978Z,99932.97
2023-08-11T00:59:29.380Z,99929.59
2023-08-11T00:59:41.713Z,99934.84
2023-08-11T00:59:53.719Z,99931.38
2023-08-11T01:00:13.296Z,99932.22
2023-08-11T01:00:25.997Z,99929.44
2023-08-11T01:00:40.057Z,99933.66
2023-08-11T01:00:52.851Z,99930.19
2023-08-11T01:01:05.605Z,99934.50
2023-08-11T01:01:17.777Z,99926.53
2023-08-11T01:01:30.981Z,99928.22
2023-08-11T01:01:43.059Z,99929.81
2023-08-11T01:01:55.253Z,99928.88
2023-08-11T01:02:08.129Z,99928.88
2023-08-11T01:02:20.253Z,99934.31
2023-08-11T01:02:32.790Z,99927.34
2023-08-11T01:02:45.809Z,99925.69
2023-08-11T01:02:58.721Z,99927.47
2023-08-11T01:03:10.892Z,99933.56
2023-08-11T01:03:23.005Z,99930.88
2023-08-11T01:03:35.484Z,99930.00
2023-08-11T01:03:48.866Z,99936.00
2023-08-11T01:04:00.985Z,99936.88
2023-08-11T01:04:13.426Z,99932.44
2023-08-11T01:04:25.465Z,99938.56
2023-08-11T01:04:38.394Z,99931.63
2023-08-11T01:04:50.418Z,99938.56
2023-08-11T01:05:04.456Z,99935.09
2023-08-11T01:05:18.758Z,99934.13
2023-08-11T01:05:35.519Z,99933.22
2023-08-11T01:05:56.363Z,99934.81
2023-08-11T01:06:41.650Z,99935.66
2023-08-11T01:07:19.788Z,99936.59
2023-08-11T01:07:52.891Z,99939.16
2023-08-11T01:08:39.795Z,99938.28
2023-08-11T01:09:24.000Z,99942.63
2023-08-11T01:09:48.148Z,99938.38
2023-08-11T01:10:07.761Z,99932.09
2023-08-11T01:10:27.149Z,99944.28
2023-08-11T01:11:18.010Z,99938.09
2023-08-11T01:11:36.973Z,99940.75
2023-08-11T01:12:07.937Z,99939.97
2023-08-11T01:12:31.849Z,99938.19
2023-08-11T01:13:04.388Z,99940.81
2023-08-11T01:13:20.825Z,99937.34
2023-08-11T01:13:38.062Z,99939.22
2023-08-11T01:14:09.926Z,99939.22
2023-08-11T01:14:28.902Z,99933.97
2023-08-11T01:15:04.782Z,99940.91
2023-08-11T01:15:22.618Z,99933.97
2023-08-11T01:15:40.819Z,99935.66
2023-08-11T01:16:01.472Z,99926.00
2023-08-11T01:16:15.525Z,99930.38
2023-08-11T01:16:28.255Z,99936.75
2023-08-11T01:16:40.923Z,99934.13
2023-08-11T01:16:54.938Z,99929.75
2023-08-11T01:17:11.740Z,99932.44
2023-08-11T01:17:25.460Z,99936.75
2023-08-11T01:17:40.073Z,99931.63
2023-08-11T01:17:53.894Z,99927.19
2023-08-11T01:18:06.723Z,99927.19
2023-08-11T01:18:20.529Z,99926.16
2023-08-11T01:18:34.368Z,99927.00
2023-08-11T01:18:47.013Z,99927.94
2023-08-11T01:18:59.394Z,99928.88
2023-08-11T01:19:18.179Z,99927.94
2023-08-11T01:19:35.255Z,99932.44
2023-08-11T01:19:47.940Z,99921.94
2023-08-11T01:20:00.492Z,99931.50
2023-08-11T01:20:13.102Z,99922.69
2023-08-11T01:20:25.789Z,99920.91
2023-08-11T01:20:38.163Z,99923.44
2023-08-11T01:20:54.070Z,99922.59
2023-08-11T01:21:15.215Z,99926.16
2023-08-11T01:21:29.191Z,99923.53
2023-08-11T01:21:42.003Z,99929.81
2023-08-11T01:21:56.807Z,99928.88
2023-08-11T01:22:14.369Z,99920.91
2023-08-11T01:22:29.671Z,99930.59
2023-08-11T01:22:45.613Z,99923.53
2023-08-11T01:23:00.123Z,99920.06
2023-08-11T01:23:20.147Z,99920.06
2023-08-11T01:23:32.657Z,99932.25
2023-08-11T01:23:44.837Z,99927.88
2023-08-11T01:23:57.303Z,99925.13
2023-08-11T01:24:09.693Z,99928.72
2023-08-11T01:24:21.927Z,99923.44
2023-08-11T01:24:34.434Z,99921.56
2023-08-11T01:24:46.921Z,99925.13
2023-08-11T01:24:58.932Z,99931.13
2023-08-11T01:25:12.280Z,99924.13
2023-08-11T01:25:25.207Z,99920.53
2023-08-11T01:25:38.057Z,99926.66
2023-08-11T01:25:50.750Z,99928.50
2023-08-11T01:26:02.967Z,99930.22
2023-08-11T01:26:14.986Z,99926.66
2023-08-11T01:26:27.791Z,99923.91
2023-08-11T01:26:39.924Z,99925.72
2023-08-11T01:26:51.972Z,99926.47
2023-08-11T01:27:04.487Z,99928.16
2023-08-11T01:27:16.508Z,99932.47
2023-08-11T01:27:29.779Z,99924.59
2023-08-11T01:27:53.771Z,99922.91
2023-08-11T01:28:06.073Z,99924.03
2023-08-11T01:28:18.410Z,99926.66
2023-08-11T01:28:30.488Z,99929.38
2023-08-11T01:28:43.189Z,99925.88
2023-08-11T01:28:55.400Z,99929.47
2023-08-11T01:29:07.387Z,99930.59
2023-08-11T01:29:19.831Z,99935.84
2023-08-11T01:29:31.817Z,99932.38
2023-08-11T01:29:43.825Z,99931.41
2023-08-11T01:29:55.771Z,99930.59
2023-08-11T01:30:08.326Z,99933.28
2023-08-11T01:30:20.448Z,99927.19
2023-08-11T01:30:35.554Z,99933.22
2023-08-11T01:30:49.289Z,99939.22
2023-08-11T01:31:01.711Z,99927.00
2023-08-11T01:31:13.750Z,99935.84
2023-08-11T01:31:26.092Z,99931.50
2023-08-11T01:31:38.105Z,99934.13
2023-08-11T01:31:50.115Z,99934.13
2023-08-11T01:32:02.190Z,99939.41
2023-08-11T01:32:14.377Z,99935.00
2023-08-11T01:32:26.413Z,99937.53
2023-08-11T01:32:39.601Z,99920.91
2023-08-11T01:32:53.108Z,99939.16
2023-08-11T01:33:05.766Z,99935.66
2023-08-11T01:33:17.749Z,99934.72
2023-08-11T01:33:30.146Z,99935.66
2023-08-11T01:33:42.090Z,99926.81
2023-08-11T01:33:54.077Z,99937.34
2023-08-11T01:34:06.067Z,99932.44
2023-08-11T01:34:18.086Z,99937.88
2023-08-11T01:34:30.099Z,99935.25
2023-08-11T01:34:42.059Z,99931.88
2023-08-11T01:34:54.178Z,99936.13
2023-08-11T01:35:07.182Z,99936.19
2023-08-11T01:35:34.313Z,99939.75
2023-08-11T01:35:50.826Z,99936.19
2023-08-11T01:36:02.952Z,99931.78
2023-08-11T01:36:14.938Z,99936.13
2023-08-11T01:36:27.016Z,99935.25
2023-08-11T01:36:42.616Z,99930.75
2023-08-11T01:37:02.657Z,99931.69
2023-08-11T01:37:14.724Z,99933.38
2023-08-11T01:37:26.796Z,99929.06
2023-08-11T01:37:38.764Z,99936.88
2023-08-11T01:37:51.220Z,99933.38
2023-08-11T01:38:03.978Z,99931.88
2023-08-11T01:38:16.008Z,99933.75
2023-08-11T01:38:28.016Z,99934.69
2023-08-11T01:38:39.973Z,99932.97
2023-08-11T01:38:51.952Z,99932.16
2023-08-11T01:39:05.888Z,99933.84
2023-08-11T01:39:17.941Z,99929.78
2023-08-11T01:39:30.179Z,99930.72
2023-08-11T01:39:42.174Z,99931.75
2023-08-11T01:39:54.509Z,99931.03
2023-08-11T01:40:12.742Z,99937.09
2023-08-11T01:40:24.996Z,99933.53
2023-08-11T01:40:37.656Z,99936.16
2023-08-11T01:40:49.711Z,99931.66
2023-08-11T01:41:01.695Z,99928.09
2023-08-11T01:41:14.535Z,99928.09
2023-08-11T01:41:26.900Z,99934.03
2023-08-11T01:41:39.616Z,99927.91
2023-08-11T01:41:51.627Z,99932.34
2023-08-11T01:42:04.428Z,99928.97
2023-08-11T01:42:16.526Z,99932.34
2023-08-11T01:42:28.537Z,99930.56
2023-08-11T01:42:53.752Z,99935.06
2023-08-11T01:43:09.636Z,99930.56
2023-08-11T01:43:23.592Z,99928.75
2023-08-11T01:43:36.626Z,99923.50
2023-08-11T01:43:50.421Z,99931.31
2023-08-11T01:44:03.041Z,99925.22
2023-08-11T01:44:15.340Z,99924.25
2023-08-11T01:44:27.979Z,99926.03
2023-08-11T01:44:40.073Z,99929.50
2023-08-11T01:44:52.975Z,99924.34
2023-08-11T01:45:05.378Z,99917.19
2023-08-11T01:45:18.563Z,99920.78
2023-08-11T01:45:30.761Z,99917.19
2023-08-11T01:45:49.387Z,99928.59
2023-08-11T01:46:02.436Z,99924.25
2023-08-11T01:46:14.468Z,99925.22
2023-08-11T01:46:28.436Z,99920.78
2023-08-11T01:46:42.670Z,99921.72
2023-08-11T01:46:56.933Z,99928.00
2023-08-11T01:47:10.846Z,99921.31
2023-08-11T01:47:24.496Z,99919.44
2023-08-11T01:47:37.807Z,99922.16
2023-08-11T01:47:51.032Z,99919.63
2023-08-11T01:48:04.612Z,99924.91
2023-08-11T01:48:19.177Z,99920.53
2023-08-11T01:48:32.398Z,99917.91
2023-08-11T01:48:45.583Z,99923.16
2023-08-11T01:48:58.232Z,99931.03
2023-08-11T01:49:13.493Z,99928.38
2023-08-11T01:49:28.856Z,99925.78
2023-08-11T01:49:40.939Z,99924.91
2023-08-11T01:49:53.120Z,99926.72
2023-08-11T01:50:05.759Z,99921.47
2023-08-11T01:50:19.859Z,99922.41
2023-08-11T01:50:33.014Z,99925.88
2023-08-11T01:50:45.441Z,99930.16
2023-08-11T01:50:57.523Z,99919.63
2023-08-11T01:51:09.784Z,99924.00
2023-08-11T01:51:22.930Z,99926.91
2023-08-11T01:51:34.949Z,99930.28
2023-08-11T01:51:47.018Z,99932.00
2023-08-11T01:51:59.521Z,99932.00
2023-08-11T01:52:12.288Z,99931.03
2023-08-11T01:52:24.286Z,99927.56
2023-08-11T01:52:40.184Z,99931.13
2023-08-11T01:52:53.908Z,99932.00
2023-08-11T01:53:05.964Z,99932.00
2023-08-11T01:53:17.974Z,99926.72
2023-08-11T01:53:30.109Z,99932.91
2023-08-11T01:53:42.504Z,99925.03
2023-08-11T01:53:55.037Z,99932.06
2023-08-11T01:54:09.203Z,99932.91
2023-08-11T01:54:21.261Z,99932.16
2023-08-11T01:54:33.647Z,99928.59
2023-08-11T01:54:45.633Z,99930.28
2023-08-11T01:54:57.782Z,99925.03
2023-08-11T01:55:11.564Z,99926.72
2023-08-11T01:55:26.041Z,99931.13
2023-08-11T01:55:38.763Z,99930.28
2023-08-11T01:55:51.596Z,99930.28
2023-08-11T01:56:03.915Z,99933.00
2023-08-11T01:56:16.617Z,99927.56
2023-08-11T01:56:29.150Z,99932.84
2023-08-11T01:56:43.072Z,99922.31
2023-08-11T01:56:56.513Z,99933.66
2023-08-11T01:57:09.227Z,99929.38
2023-08-11T01:57:21.762Z,99932.00
2023-08-11T01:57:39.148Z,99926.91
2023-08-11T01:57:59.342Z,99928.59
2023-08-11T01:58:12.988Z,99932.16
2023-08-11T01:58:25.658Z,99926.91
2023-08-11T01:58:39.563Z,99928.59
2023-08-11T01:58:51.613Z,99926.06
2023-08-11T01:59:05.771Z,99931.31
2023-08-11T01:59:19.088Z,99926.13
2023-08-11T01:59:31.117Z,99932.34
2023-08-11T01:59:43.142Z,99925.47
2023-08-11T01:59:55.181Z,99923.72
2023-08-11T02:00:11.138Z,99928.97
2023-08-11T02:00:23.136Z,99928.97
2023-08-11T02:00:35.254Z,99925.38
2023-08-11T02:00:47.358Z,99924.47
2023-08-11T02:00:59.315Z,99925.38
2023-08-11T02:01:11.328Z,99927.25
2023-08-11T02:01:23.439Z,99924.47
2023-08-11T02:01:35.495Z,99918.44
2023-08-11T02:01:47.735Z,99921.16
2023-08-11T02:01:59.876Z,99926.41
2023-08-11T02:02:11.881Z,99923.03
2023-08-11T02:02:23.883Z,99925.56
2023-08-11T02:02:35.965Z,99924.63
2023-08-11T02:02:48.512Z,99922.94
2023-08-11T02:03:00.753Z,99927.25
2023-08-11T02:03:14.110Z,99921.06
2023-08-11T02:03:26.307Z,99925.38
2023-08-11T02:03:38.527Z,99919.97
2023-08-11T02:03:50.817Z,99928.78
2023-08-11T02:04:03.598Z,99924.47
2023-08-11T02:04:15.640Z,99924.47
2023-08-11T02:04:29.560Z,99924.47
2023-08-11T02:04:41.537Z,99925.38
2023-08-11T02:04:53.931Z,99925.56
2023-08-11T02:05:07.780Z,99921.31
2023-08-11T02:05:19.860Z,99932.03
2023-08-11T02:05:31.863Z,99917.84
2023-08-11T02:05:43.892Z,99919.66
2023-08-11T02:05:56.686Z,99925.75
2023-08-11T02:06:08.662Z,99921.44
2023-08-11T02:06:20.832Z,99924.22
2023-08-11T02:06:32.843Z,99920.69
2023-08-11T02:06:46.766Z,99928.66
2023-08-11T02:06:58.699Z,99920.84
2023-08-11T02:07:10.896Z,99927.97
2023-08-11T02:07:22.829Z,99929.75
2023-08-11T02:07:42.020Z,99929.00
2023-08-11T02:07:56.479Z,99929.75
2023-08-11T02:08:08.746Z,99931.50
2023-08-11T02:08:20.818Z,99924.66
2023-08-11T02:08:36.857Z,99924.75
2023-08-11T02:08:49.120Z,99933.56
2023-08-11T02:09:01.600Z,99933.56
2023-08-11T02:09:13.748Z,99927.47
2023-08-11T02:09:25.886Z,99935.44
2023-08-11T02:09:37.940Z,99931.97
2023-08-11T02:09:50.545Z,99931.22
2023-08-11T02:10:03.912Z,99933.16
2023-08-11T02:10:15.895Z,99933.94
2023-08-11T02:10:27.938Z,99940.03
2023-08-11T02:10:39.889Z,99933.94
2023-08-11T02:10:51.999Z,99931.22
2023-08-11T02:11:04.740Z,99932.06
2023-08-11T02:11:16.718Z,99940.69
2023-08-11T02:11:28.732Z,99937.13
2023-08-11T02:11:40.817Z,99943.25
2023-08-11T02:11:53.190Z,99933.56
2023-08-11T02:12:05.582Z,99936.19
2023-08-11T02:12:17.724Z,99940.50
2023-08-11T02:12:30.012Z,99932.75
2023-08-11T02:12:42.348Z,99936.19
2023-08-11T02:12:54.311Z,99933.72
2023-08-11T02:13:06.306Z,99932.81
2023-08-11T02:13:18.335Z,99941.53
2023-08-11T02:13:30.360Z,99940.69
2023-08-11T02:13:42.332Z,99937.13
2023-08-11T02:13:54.306Z,99938.84
2023-08-11T02:14:06.746Z,99940.50
2023-08-11T02:14:18.784Z,99930.88
2023-08-11T02:14:30.785Z,99937.88
2023-08-11T02:14:42.742Z,99938.84
2023-08-11T02:14:54.718Z,99938.00
2023-08-11T02:15:07.599Z,99934.41
2023-08-11T02:15:19.942Z,99939.66
2023-08-11T02:15:32.030Z,99936.13
2023-08-11T02:15:43.997Z,99940.50
2023-08-11T02:15:56.060Z,99938.75
2023-08-11T02:16:08.100Z,99936.13
2023-08-11T02:16:20.109Z,99931.69
2023-08-11T02:16:32.803Z,99938.63
2023-08-11T02:16:45.060Z,99940.44
2023-08-11T02:16:57.071Z,99935.25
2023-08-11T02:17:09.345Z,99933.38
2023-08-11T02:17:21.492Z,99928.13
2023-08-11T02:17:34.003Z,99933.38
2023-08-11T02:17:46.038Z,99940.50
2023-08-11T02:17:58.071Z,99936.97
2023-08-11T02:18:10.105Z,99929.00
2023-08-11T02:18:22.058Z,99937.81
2023-08-11T02:18:34.046Z,99930.75
2023-08-11T02:18:46.117Z,99929.00
2023-08-11T02:18:58.779Z,99934.13
2023-08-11T02:19:11.343Z,99935.09
2023-08-11T02:19:23.345Z,99944.84
2023-08-11T02:19:35.450Z,99934.34
2023-08-11T02:19:47.426Z,99933.38
2023-08-11T02:20:00.866Z,99930.00
2023-08-11T02:20:22.411Z,99937.88
2023-08-11T02:20:34.612Z,99945.00
2023-08-11T02:20:47.104Z,99939.00
2023-08-11T02:20:59.113Z,99941.63
2023-08-11T02:21:11.246Z,99939.00
2023-08-11T02:21:23.311Z,99933.72
2023-08-11T02:21:38.496Z,99934.59
2023-08-11T02:21:50.899Z,99932.06
2023-08-11T02:22:02.850Z,99932.22
2023-08-11T02:22:14.844Z,99937.47
2023-08-11T02:22:27.671Z,99935.59
2023-08-11T02:22:39.657Z,99933.84
2023-08-11T02:22:52.580Z,99928.47
2023-08-11T02:23:04.740Z,99928.47
2023-08-11T02:23:16.848Z,99931.88
2023-08-11T02:23:29.238Z,99926.59
2023-08-11T02:23:41.181Z,99937.13
2023-08-11T02:23:53.120Z,99932.06
2023-08-11T02:24:05.338Z,99928.59
2023-08-11T02:24:17.500Z,99928.47
2023-08-11T02:24:29.936Z,99936.38
2023-08-11T02:24:41.968Z,99931.09
2023-08-11T02:24:54.983Z,99928.47
2023-08-11T02:25:07.394Z,99920.59
2023-08-11T02:25:19.847Z,99924.94
2023-08-11T02:25:31.859Z,99928.47
2023-08-11T02:25:43.881Z,99933.72
2023-08-11T02:25:55.887Z,99934.59
2023-08-11T02:26:08.129Z,99927.47
2023-08-11T02:26:20.185Z,99927.47
2023-08-11T02:26:33.781Z,99923.97
2023-08-11T02:26:45.782Z,99931.69
2023-08-11T02:26:57.974Z,99929.16
2023-08-11T02:27:10.838Z,99940.50
2023-08-11T02:27:23.219Z,99930.00
2023-08-11T02:27:35.200Z,99931.69
2023-08-11T02:27:48.085Z,99931.69
2023-08-11T02:28:00.135Z,99935.16
2023-08-11T02:28:12.093Z,99930.88
2023-08-11T02:28:24.159Z,99924.75
2023-08-11T02:28:36.155Z,99930.88
2023-08-11T02:28:48.176Z,99937.13
2023-08-11T02:29:00.148Z,99928.31
2023-08-11T02:29:12.185Z,99928.31
2023-08-11T02:29:24.165Z,99930.00
2023-08-11T02:29:36.547Z,99939.66
2023-08-11T02:29:50.506Z,99937.88
2023-08-11T02:30:05.860Z,99936.19
2023-08-11T02:30:18.751Z,99933.56
2023-08-11T02:30:31.101Z,99930.88
2023-08-11T02:30:43.060Z,99940.50
2023-08-11T02:30:55.173Z,99939.66
2023-08-11T02:31:09.194Z,99930.00
2023-08-11T02:31:21.253Z,99928.25
2023-08-11T02:31:34.148Z,99928.31
2023-08-11T02:31:46.244Z,99926.59
2023-08-11T02:31:58.379Z,99929.06
2023-08-11T02:32:10.416Z,99930.00
2023-08-11T02:32:22.395Z,99929.91
2023-08-11T02:32:34.649Z,99928.31
2023-08-11T02:32:47.146Z,99936.97
2023-08-11T02:32:59.282Z,99936.97
2023-08-11T02:33:11.374Z,99933.38
2023-08-11T02:33:23.590Z,99931.50
2023-08-11T02:33:35.925Z,99929.00
2023-08-11T02:33:48.175Z,99931.50
2023-08-11T02:34:00.168Z,99933.38
2023-08-11T02:34:12.121Z,99927.22
2023-08-11T02:34:24.103Z,99927.22
2023-08-11T02:34:36.936Z,99925.50
2023-08-11T02:34:49.058Z,99929.84
2023-08-11T02:35:01.222Z,99926.25
2023-08-11T02:35:13.904Z,99923.63
2023-08-11T02:35:25.924Z,99926.25
2023-08-11T02:35:37.973Z,99930.59
2023-08-11T02:35:50.020Z,99919.31
2023-08-11T02:36:02.005Z,99922.78
2023-08-11T02:36:15.270Z,99918.38